Time;durP1;ratioP1;P1;durP2;ratioP2;P2;SDS_P1;SDS_P2;PMS_P1;PMS_P2;Temp;Humidity;BMP_temperature;BMP_pressure;BME280_temperature;BME280_humidity;BME280_pressure;Samples;Min_cycle;Max_cycle;Signal;HPM_P1;HPM_P2
2023/05/02 00:01:44;;;;;;;;;;;12.10;99.90;;;;;;4991638;28;19992;-45
2023/05/02 00:04:11;;;;;;;;;;;12.10;99.90;;;;;;4993924;28;20044;-43
2023/05/02 00:06:37;;;;;;;;;;;12.10;99.90;;;;;;4993017;28;20028;-45
2023/05/02 00:09:04;;;;;;;;;;;12.10;99.90;;;;;;4990041;28;19939;-46
2023/05/02 00:11:31;;;;;;;;;;;12.10;99.90;;;;;;4992009;28;19996;-50
2023/05/02 00:13:59;;;;;;;;;;;12.10;99.90;;;;;;4992771;28;19981;-47
2023/05/02 00:16:25;;;;;;;;;;;12.10;99.90;;;;;;4991386;28;19983;-49
2023/05/02 00:18:52;;;;;;;;;;;12.00;99.90;;;;;;4992824;28;19955;-45
2023/05/02 00:21:18;;;;;;;;;;;12.00;99.90;;;;;;4992688;28;20024;-46
2023/05/02 00:23:45;;;;;;;;;;;11.90;99.90;;;;;;4993042;28;19932;-50
2023/05/02 00:26:12;;;;;;;;;;;11.90;99.90;;;;;;4989012;28;20452;-48
2023/05/02 00:28:39;;;;;;;;;;;11.80;99.90;;;;;;4990893;28;19936;-48
2023/05/02 00:31:07;;;;;;;;;;;11.80;99.90;;;;;;4993101;28;19988;-44
2023/05/02 00:33:33;;;;;;;;;;;11.80;99.90;;;;;;4993317;28;19984;-46
2023/05/02 00:36:00;;;;;;;;;;;11.70;99.90;;;;;;4993656;28;19996;-45
2023/05/02 00:38:26;;;;;;;;;;;11.70;99.90;;;;;;4992118;28;20031;-49
2023/05/02 00:40:53;;;;;;;;;;;11.60;99.90;;;;;;4993931;28;20015;-47
2023/05/02 00:43:20;;;;;;;;;;;11.60;99.90;;;;;;4992597;28;19991;-47
2023/05/02 00:45:46;;;;;;;;;;;11.60;99.90;;;;;;4993046;28;20048;-49
2023/05/02 00:48:16;;;;;;;;;;;11.50;99.90;;;;;;4992731;28;19937;-47
2023/05/02 00:50:43;;;;;;;;;;;11.50;99.90;;;;;;4992569;28;19933;-48
2023/05/02 00:53:10;;;;;;;;;;;11.50;99.90;;;;;;4993011;28;20348;-49
2023/05/02 00:55:36;;;;;;;;;;;11.50;99.90;;;;;;4993126;28;19984;-48
2023/05/02 00:58:04;;;;;;;;;;;11.50;99.90;;;;;;4991260;28;19979;-48
2023/05/02 01:00:31;;;;;;;;;;;11.40;99.90;;;;;;4989977;28;19980;-52
2023/05/02 01:02:58;;;;;;;;;;;11.40;99.90;;;;;;4987808;28;19933;-48
2023/05/02 01:05:27;;;;;;;;;;;11.40;99.90;;;;;;4991395;28;19973;-53
2023/05/02 01:08:02;;;;;;;;;;;11.40;99.90;;;;;;4973952;28;20050;-51
2023/05/02 01:10:30;;;;;;;;;;;11.40;99.90;;;;;;4989729;28;19937;-53
2023/05/02 01:12:59;;;;;;;;;;;11.40;99.90;;;;;;4992659;28;20493;-52
2023/05/02 01:15:26;;;;;;;;;;;11.40;99.90;;;;;;4991502;28;20029;-49
2023/05/02 01:17:53;;;;;;;;;;;11.30;99.90;;;;;;4992259;28;20380;-52
2023/05/02 01:20:21;;;;;;;;;;;11.40;99.90;;;;;;4992173;28;20444;-55
2023/05/02 01:22:49;;;;;;;;;;;11.30;99.90;;;;;;4990705;28;20394;-54
2023/05/02 01:25:19;;;;;;;;;;;11.30;99.90;;;;;;4991718;28;20353;-53
2023/05/02 01:27:47;;;;;;;;;;;11.20;99.90;;;;;;4991470;28;20047;-53
2023/05/02 01:30:15;;;;;;;;;;;11.20;99.90;;;;;;4992540;28;19937;-55
2023/05/02 01:32:42;;;;;;;;;;;11.20;99.90;;;;;;5003007;28;19961;-54
2023/05/02 01:35:09;;;;;;;;;;;11.20;99.90;;;;;;4992715;28;19992;-55
2023/05/02 01:37:36;;;;;;;;;;;11.20;99.90;;;;;;4991879;28;19937;-50
2023/05/02 01:40:03;;;;;;;;;;;11.20;99.90;;;;;;4991785;28;19941;-55
2023/05/02 01:42:30;;;;;;;;;;;11.20;99.90;;;;;;4991707;28;19975;-53
2023/05/02 01:44:56;;;;;;;;;;;11.20;99.90;;;;;;4992165;28;19987;-54
2023/05/02 01:47:24;;;;;;;;;;;11.20;99.90;;;;;;4991078;28;19956;-52
2023/05/02 01:49:51;;;;;;;;;;;11.10;99.90;;;;;;4993479;28;19935;-47
2023/05/02 01:52:18;;;;;;;;;;;11.10;99.90;;;;;;4991082;28;19937;-54
2023/05/02 01:54:44;;;;;;;;;;;11.10;99.90;;;;;;4992074;28;19970;-55
2023/05/02 01:57:11;;;;;;;;;;;11.10;99.90;;;;;;4992499;28;20411;-53
2023/05/02 01:59:38;;;;;;;;;;;11.00;99.90;;;;;;4992482;28;20431;-53
2023/05/02 02:02:04;;;;;;;;;;;11.00;99.90;;;;;;4993172;28;20372;-57
2023/05/02 02:04:32;;;;;;;;;;;10.90;99.90;;;;;;4991646;28;19959;-55
2023/05/02 02:07:01;;;;;;;;;;;10.90;99.90;;;;;;5002939;28;19972;-48
2023/05/02 02:09:27;;;;;;;;;;;10.80;99.90;;;;;;4991742;28;19938;-54
2023/05/02 02:11:57;;;;;;;;;;;10.80;99.90;;;;;;4991728;28;19977;-54
2023/05/02 02:14:25;;;;;;;;;;;10.80;99.90;;;;;;4991576;28;19985;-56
2023/05/02 02:16:53;;;;;;;;;;;10.80;99.90;;;;;;4990466;28;19934;-55
2023/05/02 02:19:20;;;;;;;;;;;10.70;99.90;;;;;;4993026;28;19952;-53
2023/05/02 02:21:48;;;;;;;;;;;10.70;99.90;;;;;;4993483;28;19973;-52
2023/05/02 02:24:14;;;;;;;;;;;10.70;99.90;;;;;;4994227;28;20408;-53
2023/05/02 02:26:41;;;;;;;;;;;10.70;99.90;;;;;;4994206;28;20012;-51
2023/05/02 02:29:08;;;;;;;;;;;10.70;99.90;;;;;;4995672;28;19963;-53
2023/05/02 02:31:35;;;;;;;;;;;10.60;99.90;;;;;;4996410;28;20358;-53
2023/05/02 02:34:02;;;;;;;;;;;10.60;99.90;;;;;;4994706;28;19938;-53
2023/05/02 02:36:30;;;;;;;;;;;10.50;99.90;;;;;;4995239;28;20372;-54
2023/05/02 02:39:01;;;;;;;;;;;10.50;99.90;;;;;;4994533;28;20042;-57
2023/05/02 02:41:28;;;;;;;;;;;10.40;99.90;;;;;;4995287;28;20385;-50
2023/05/02 02:43:58;;;;;;;;;;;10.40;99.90;;;;;;4994470;28;20475;-54
2023/05/02 02:46:28;;;;;;;;;;;10.30;99.90;;;;;;4993582;28;20459;-53
2023/05/02 02:48:55;;;;;;;;;;;10.20;99.90;;;;;;4995590;28;19984;-53
2023/05/02 02:51:24;;;;;;;;;;;10.20;99.90;;;;;;4994114;28;19991;-49
2023/05/02 02:53:52;;;;;;;;;;;10.10;99.90;;;;;;4994936;28;19969;-52
2023/05/02 02:56:22;;;;;;;;;;;10.00;99.90;;;;;;4993068;28;19939;-50
2023/05/02 02:58:52;;;;;;;;;;;9.90;99.90;;;;;;4992932;28;19993;-52
2023/05/02 03:01:20;;;;;;;;;;;9.80;99.90;;;;;;4994232;28;19964;-56
2023/05/02 03:03:47;;;;;;;;;;;9.70;99.90;;;;;;4994298;28;20015;-55
2023/05/02 03:06:14;;;;;;;;;;;9.70;99.90;;;;;;4999922;28;20304;-53
2023/05/02 03:08:40;;;;;;;;;;;9.60;99.90;;;;;;4992684;28;19952;-51
2023/05/02 03:11:07;;;;;;;;;;;9.60;99.90;;;;;;4993870;28;19940;-53
2023/05/02 03:13:35;;;;;;;;;;;9.50;99.90;;;;;;4994932;28;19965;-46
2023/05/02 03:16:22;;;;;;;;;;;9.50;99.90;;;;;;4994172;28;19937;-52
2023/05/02 03:18:48;;;;;;;;;;;9.40;99.90;;;;;;4994012;28;19922;-56
2023/05/02 03:21:15;;;;;;;;;;;9.40;99.90;;;;;;4994050;28;19938;-46
2023/05/02 03:23:42;;;;;;;;;;;9.30;99.90;;;;;;4992928;28;20042;-54
2023/05/02 03:26:08;;;;;;;;;;;9.30;99.90;;;;;;4993463;28;20002;-54
2023/05/02 03:28:36;;;;;;;;;;;9.20;99.90;;;;;;4993329;28;19976;-49
2023/05/02 03:31:03;;;;;;;;;;;9.20;99.90;;;;;;4994169;28;20350;-53
2023/05/02 03:33:30;;;;;;;;;;;9.20;99.90;;;;;;4993713;28;20025;-57
2023/05/02 03:35:56;;;;;;;;;;;9.10;99.90;;;;;;4994980;28;19941;-56
2023/05/02 03:38:23;;;;;;;;;;;9.10;99.90;;;;;;4991626;28;19958;-49
2023/05/02 03:40:50;;;;;;;;;;;9.10;99.90;;;;;;4993732;28;19934;-56
2023/05/02 03:43:16;;;;;;;;;;;9.00;99.90;;;;;;4994521;28;20441;-58
2023/05/02 03:45:44;;;;;;;;;;;8.90;99.90;;;;;;4986255;28;20006;-55
2023/05/02 03:48:11;;;;;;;;;;;8.90;99.90;;;;;;4989123;28;20479;-48
2023/05/02 03:50:38;;;;;;;;;;;8.90;99.90;;;;;;4991873;28;20037;-58
2023/05/02 03:53:04;;;;;;;;;;;8.80;99.90;;;;;;4994770;28;19975;-54
2023/05/02 03:55:31;;;;;;;;;;;8.70;99.90;;;;;;4994082;28;19990;-55
2023/05/02 03:57:58;;;;;;;;;;;8.60;99.90;;;;;;4995195;28;20341;-56
2023/05/02 04:00:24;;;;;;;;;;;8.60;99.90;;;;;;4994940;28;20440;-56
2023/05/02 04:02:52;;;;;;;;;;;8.50;99.90;;;;;;4993779;28;19940;-57
2023/05/02 04:05:19;;;;;;;;;;;8.50;99.90;;;;;;4994881;28;20005;-61
2023/05/02 04:07:46;;;;;;;;;;;8.50;99.90;;;;;;4995646;28;19936;-47
2023/05/02 04:10:15;;;;;;;;;;;8.30;99.90;;;;;;4995696;28;19937;-58
2023/05/02 04:12:42;;;;;;;;;;;8.30;99.90;;;;;;4993369;28;19950;-59
2023/05/02 04:15:09;;;;;;;;;;;8.30;99.90;;;;;;4994250;28;19970;-49
2023/05/02 04:17:36;;;;;;;;;;;8.30;99.90;;;;;;4994059;28;20410;-56
2023/05/02 04:20:04;;;;;;;;;;;8.30;99.90;;;;;;4995923;28;19950;-60
2023/05/02 04:22:30;;;;;;;;;;;8.30;99.90;;;;;;4995729;28;19940;-59
2023/05/02 04:24:57;;;;;;;;;;;8.30;99.90;;;;;;4994932;28;20551;-58
2023/05/02 04:27:24;;;;;;;;;;;8.30;99.90;;;;;;4992237;28;20070;-58
2023/05/02 04:29:50;;;;;;;;;;;8.30;99.90;;;;;;4996461;28;19997;-59
2023/05/02 04:32:17;;;;;;;;;;;8.30;99.90;;;;;;4994924;28;20004;-56
2023/05/02 04:34:44;;;;;;;;;;;8.20;99.90;;;;;;4995298;28;20389;-61
2023/05/02 04:37:12;;;;;;;;;;;8.20;99.90;;;;;;4995741;28;20043;-57
2023/05/02 04:39:38;;;;;;;;;;;8.20;99.90;;;;;;4996462;28;20038;-58
2023/05/02 04:42:05;;;;;;;;;;;8.20;99.90;;;;;;4995177;28;19942;-54
2023/05/02 04:44:32;;;;;;;;;;;8.10;99.90;;;;;;4995590;28;19928;-57
2023/05/02 04:46:59;;;;;;;;;;;8.10;99.90;;;;;;4996411;28;19989;-53
2023/05/02 04:49:25;;;;;;;;;;;8.10;99.90;;;;;;4995716;28;20386;-58
2023/05/02 04:51:52;;;;;;;;;;;8.10;99.90;;;;;;4993845;28;19983;-60
2023/05/02 04:54:20;;;;;;;;;;;8.10;99.90;;;;;;4994869;28;19951;-60
2023/05/02 04:56:47;;;;;;;;;;;8.10;99.90;;;;;;4995173;28;20019;-48
2023/05/02 04:59:14;;;;;;;;;;;8.10;99.90;;;;;;4994888;28;19957;-60
2023/05/02 05:01:40;;;;;;;;;;;8.10;99.90;;;;;;4995716;28;19984;-60
2023/05/02 05:04:07;;;;;;;;;;;8.10;99.90;;;;;;4993673;28;20005;-61
2023/05/02 05:06:33;;;;;;;;;;;8.10;99.90;;;;;;4994895;28;20006;-60
2023/05/02 05:09:01;;;;;;;;;;;8.10;99.90;;;;;;4994427;28;19994;-64
2023/05/02 05:11:29;;;;;;;;;;;8.10;99.90;;;;;;4994950;28;19959;-51
2023/05/02 05:13:57;;;;;;;;;;;8.10;99.90;;;;;;5012600;28;20038;-59
2023/05/02 05:16:23;;;;;;;;;;;8.10;99.90;;;;;;5001234;28;19956;-58
2023/05/02 05:18:52;;;;;;;;;;;8.20;99.90;;;;;;5000549;28;19954;-60
2023/05/02 05:21:19;;;;;;;;;;;8.10;99.90;;;;;;4994703;28;20041;-59
2023/05/02 05:23:46;;;;;;;;;;;8.10;99.90;;;;;;4994130;28;20020;-56
2023/05/02 05:26:14;;;;;;;;;;;8.10;99.90;;;;;;4994329;28;20012;-61
2023/05/02 05:28:42;;;;;;;;;;;8.10;99.90;;;;;;4993758;28;19936;-59
2023/05/02 05:31:08;;;;;;;;;;;8.10;99.90;;;;;;4994819;28;19941;-59
2023/05/02 05:33:35;;;;;;;;;;;8.10;99.90;;;;;;5015211;22;20051;-53
2023/05/02 05:36:05;;;;;;;;;;;8.20;99.90;;;;;;5031082;28;20411;-59
2023/05/02 05:38:32;;;;;;;;;;;8.20;99.90;;;;;;5033021;28;19942;-60
2023/05/02 05:40:59;;;;;;;;;;;8.30;99.90;;;;;;5031207;28;20027;-54
2023/05/02 05:43:26;;;;;;;;;;;8.30;99.90;;;;;;5032035;28;19990;-57
2023/05/02 05:45:53;;;;;;;;;;;8.30;99.90;;;;;;5032208;28;19934;-57
2023/05/02 05:48:20;;;;;;;;;;;8.40;99.90;;;;;;5032166;28;19935;-62
2023/05/02 05:50:47;;;;;;;;;;;8.40;99.90;;;;;;5031228;28;20038;-56
2023/05/02 05:53:13;;;;;;;;;;;8.50;99.90;;;;;;5021233;28;19938;-59
2023/05/02 05:55:41;;;;;;;;;;;8.50;99.90;;;;;;5031744;28;19937;-53
2023/05/02 05:58:07;;;;;;;;;;;8.50;99.90;;;;;;5034066;28;19988;-56
2023/05/02 06:00:34;;;;;;;;;;;8.50;99.90;;;;;;5034653;28;19998;-56
2023/05/02 06:03:02;;;;;;;;;;;8.40;99.90;;;;;;5036358;28;20541;-63
2023/05/02 06:05:29;;;;;;;;;;;8.40;99.90;;;;;;5044031;28;19942;-57
2023/05/02 06:07:55;;;;;;;;;;;8.40;99.90;;;;;;5041161;28;20002;-50
2023/05/02 06:10:22;;;;;;;;;;;8.40;99.90;;;;;;5033878;28;19921;-48
2023/05/02 06:12:49;;;;;;;;;;;8.50;99.90;;;;;;5034108;28;19941;-56
2023/05/02 06:15:15;;;;;;;;;;;8.50;99.90;;;;;;5033839;28;20379;-55
2023/05/02 06:17:45;;;;;;;;;;;8.60;99.90;;;;;;5035205;28;19935;-54
2023/05/02 06:20:13;;;;;;;;;;;8.60;99.90;;;;;;5034577;28;20005;-50
2023/05/02 06:22:40;;;;;;;;;;;8.60;99.90;;;;;;5032977;28;19987;-59
2023/05/02 06:25:07;;;;;;;;;;;8.70;99.90;;;;;;5032725;28;19938;-56
2023/05/02 06:27:34;;;;;;;;;;;8.70;99.90;;;;;;5034168;28;19935;-57
2023/05/02 06:30:01;;;;;;;;;;;8.80;99.90;;;;;;5029814;28;19938;-55
2023/05/02 06:32:29;;;;;;;;;;;8.90;99.90;;;;;;5030857;28;19990;-57
2023/05/02 06:34:56;;;;;;;;;;;8.90;99.90;;;;;;5038605;28;20002;-59
2023/05/02 06:37:24;;;;;;;;;;;9.00;99.90;;;;;;5033575;28;19929;-56
2023/05/02 06:39:51;;;;;;;;;;;9.00;99.90;;;;;;5032899;28;19957;-57
2023/05/02 06:42:17;;;;;;;;;;;9.10;99.90;;;;;;5013721;28;19998;-54
2023/05/02 06:44:44;;;;;;;;;;;9.20;99.90;;;;;;5028210;28;20184;-56
2023/05/02 06:47:10;;;;;;;;;;;9.20;99.90;;;;;;5033692;28;19976;-52
2023/05/02 06:49:37;;;;;;;;;;;9.30;99.90;;;;;;5033902;28;19937;-57
2023/05/02 06:52:04;;;;;;;;;;;9.30;99.90;;;;;;5034492;28;19935;-53
2023/05/02 06:54:32;;;;;;;;;;;9.30;99.90;;;;;;5031974;28;19941;-54
2023/05/02 06:56:59;;;;;;;;;;;9.30;99.90;;;;;;5028835;28;19979;-46
2023/05/02 06:59:26;;;;;;;;;;;9.30;99.90;;;;;;5032985;28;19959;-58
2023/05/02 07:01:52;;;;;;;;;;;9.30;99.90;;;;;;5033203;28;19931;-55
2023/05/02 07:04:19;;;;;;;;;;;9.30;99.90;;;;;;5033701;28;20024;-55
2023/05/02 07:06:46;;;;;;;;;;;9.40;99.90;;;;;;5052879;28;20314;-49
2023/05/02 07:09:13;;;;;;;;;;;9.30;99.90;;;;;;5035635;28;19998;-52
2023/05/02 07:11:41;;;;;;;;;;;9.40;99.90;;;;;;5032072;28;19936;-52
2023/05/02 07:14:08;;;;;;;;;;;9.40;99.90;;;;;;5032100;28;19999;-54
2023/05/02 07:16:34;;;;;;;;;;;9.50;99.90;;;;;;5031498;28;20036;-48
2023/05/02 07:19:03;;;;;;;;;;;9.50;99.90;;;;;;5032009;28;19980;-58
2023/05/02 07:21:31;;;;;;;;;;;9.50;99.90;;;;;;5029995;28;20347;-55
2023/05/02 07:23:57;;;;;;;;;;;9.40;99.90;;;;;;5031079;28;19936;-51
2023/05/02 07:26:26;;;;;;;;;;;9.40;99.90;;;;;;5031770;28;19936;-56
2023/05/02 07:28:54;;;;;;;;;;;9.40;99.90;;;;;;5032338;28;19932;-48
2023/05/02 07:31:20;;;;;;;;;;;9.40;99.90;;;;;;5030024;28;20052;-52
2023/05/02 07:33:47;;;;;;;;;;;9.40;99.90;;;;;;5033250;28;20006;-48
2023/05/02 07:36:14;;;;;;;;;;;9.50;99.90;;;;;;5030859;28;19942;-52
2023/05/02 07:38:40;;;;;;;;;;;9.50;99.90;;;;;;5028993;28;20037;-51
2023/05/02 07:41:07;;;;;;;;;;;9.50;99.90;;;;;;5029945;28;20369;-55
2023/05/02 07:43:34;;;;;;;;;;;9.50;99.90;;;;;;5031305;28;20018;-53
2023/05/02 07:46:05;;;;;;;;;;;9.50;99.90;;;;;;5030399;28;19991;-57
2023/05/02 07:48:32;;;;;;;;;;;9.40;99.90;;;;;;5029526;28;20019;-52
2023/05/02 07:51:05;;;;;;;;;;;9.40;99.90;;;;;;5032298;28;19983;-46
2023/05/02 07:53:32;;;;;;;;;;;9.40;99.90;;;;;;5028314;28;19936;-53
2023/05/02 07:55:59;;;;;;;;;;;9.40;99.90;;;;;;5032016;28;19979;-48
2023/05/02 07:58:25;;;;;;;;;;;9.40;99.90;;;;;;5013409;28;19983;-53
2023/05/02 08:00:52;;;;;;;;;;;9.40;99.90;;;;;;5012801;28;20011;-51
2023/05/02 08:03:20;;;;;;;;;;;9.40;99.90;;;;;;5025880;28;19998;-51
2023/05/02 08:05:47;;;;;;;;;;;9.40;99.90;;;;;;5052443;28;19999;-49
2023/05/02 08:08:13;;;;;;;;;;;9.40;99.90;;;;;;5030178;28;19937;-49
2023/05/02 08:10:40;;;;;;;;;;;9.40;99.90;;;;;;5031481;28;19978;-54
2023/05/02 08:13:06;;;;;;;;;;;9.40;99.90;;;;;;5032562;28;20435;-50
2023/05/02 08:15:33;;;;;;;;;;;9.40;99.90;;;;;;5031189;28;20022;-53
2023/05/02 08:18:00;;;;;;;;;;;9.40;99.90;;;;;;5028461;28;19996;-52
2023/05/02 08:20:28;;;;;;;;;;;9.50;99.90;;;;;;5028679;28;20001;-49
2023/05/02 08:22:54;;;;;;;;;;;9.50;99.90;;;;;;5030503;28;19966;-48
2023/05/02 08:25:21;;;;;;;;;;;9.50;99.70;;;;;;5028919;28;19978;-52
2023/05/02 08:27:48;;;;;;;;;;;9.60;99.90;;;;;;5029377;28;20052;-50
2023/05/02 08:30:14;;;;;;;;;;;9.70;99.90;;;;;;5031057;28;19992;-43
2023/05/02 08:32:41;;;;;;;;;;;9.80;99.90;;;;;;5030569;28;19943;-48
2023/05/02 08:35:08;;;;;;;;;;;9.90;99.90;;;;;;5031654;28;20003;-52
2023/05/02 08:37:36;;;;;;;;;;;10.10;99.90;;;;;;5029483;28;19939;-49
2023/05/02 08:40:03;;;;;;;;;;;10.20;99.90;;;;;;5011766;28;20045;-51
2023/05/02 08:42:30;;;;;;;;;;;10.30;98.80;;;;;;5020765;28;19943;-50
2023/05/02 08:44:57;;;;;;;;;;;10.30;99.90;;;;;;5030020;28;19936;-51
2023/05/02 08:47:24;;;;;;;;;;;10.50;99.90;;;;;;5030445;28;20446;-47
2023/05/02 08:49:51;;;;;;;;;;;10.50;99.90;;;;;;5027555;28;20205;-51
2023/05/02 08:52:18;;;;;;;;;;;10.60;99.90;;;;;;5028328;28;20446;-50
2023/05/02 08:54:45;;;;;;;;;;;10.70;98.90;;;;;;5030785;28;19972;-51
2023/05/02 08:57:12;;;;;;;;;;;10.70;99.90;;;;;;5030143;28;20269;-53
2023/05/02 08:59:39;;;;;;;;;;;10.80;99.90;;;;;;5028334;28;19973;-47
2023/05/02 09:02:09;;;;;;;;;;;10.90;99.90;;;;;;5029717;28;20887;-52
2023/05/02 09:04:35;;;;;;;;;;;11.00;99.80;;;;;;5048788;28;20099;-45
2023/05/02 09:07:02;;;;;;;;;;;11.00;99.10;;;;;;5029275;28;20020;-45
2023/05/02 09:09:30;;;;;;;;;;;11.00;99.60;;;;;;5028440;28;19990;-48
2023/05/02 09:11:58;;;;;;;;;;;11.10;98.80;;;;;;5021864;28;19960;-46
2023/05/02 09:14:25;;;;;;;;;;;11.10;99.70;;;;;;5026550;28;19957;-52
2023/05/02 09:16:51;;;;;;;;;;;11.10;99.70;;;;;;5027307;28;19942;-48
2023/05/02 09:19:24;;;;;;;;;;;11.20;99.40;;;;;;5020577;28;19976;-49
2023/05/02 09:21:59;;;;;;;;;;;11.30;98.30;;;;;;5014703;28;20340;-47
2023/05/02 09:24:25;;;;;;;;;;;11.30;99.10;;;;;;5029335;28;19999;-43
2023/05/02 09:27:01;;;;;;;;;;;11.40;98.40;;;;;;5027359;28;20394;-48
2023/05/02 09:29:29;;;;;;;;;;;11.50;98.40;;;;;;5030272;28;19979;-49
2023/05/02 09:31:56;;;;;;;;;;;11.60;98.80;;;;;;5027425;28;19937;-49
2023/05/02 09:34:22;;;;;;;;;;;11.60;97.60;;;;;;5030030;28;19973;-43
2023/05/02 09:36:50;;;;;;;;;;;11.70;98.30;;;;;;5023258;28;20377;-51
2023/05/02 09:39:17;;;;;;;;;;;11.70;98.50;;;;;;5022182;28;19933;-50
2023/05/02 09:41:45;;;;;;;;;;;11.80;98.50;;;;;;5023503;28;19995;-48
2023/05/02 09:44:13;;;;;;;;;;;11.90;98.40;;;;;;5030337;28;19935;-47
2023/05/02 09:46:40;;;;;;;;;;;12.00;98.80;;;;;;5028742;28;19964;-53
2023/05/02 09:49:07;;;;;;;;;;;12.00;96.50;;;;;;5022713;28;20032;-47
2023/05/02 09:51:34;;;;;;;;;;;12.00;97.30;;;;;;5018467;28;19944;-49
2023/05/02 09:54:00;;;;;;;;;;;12.00;96.80;;;;;;5018715;28;19936;-46
2023/05/02 09:56:27;;;;;;;;;;;12.00;97.00;;;;;;5022061;28;19932;-49
2023/05/02 09:59:02;;;;;;;;;;;12.00;96.80;;;;;;5027335;28;19991;-46
2023/05/02 10:01:30;;;;;;;;;;;12.00;96.00;;;;;;5028110;28;19952;-49
2023/05/02 10:03:56;;;;;;;;;;;12.00;97.70;;;;;;5030118;28;19972;-43
2023/05/02 10:06:23;;;;;;;;;;;12.10;96.20;;;;;;5028820;28;19967;-44
2023/05/02 10:08:50;;;;;;;;;;;12.20;97.10;;;;;;5028162;28;20397;-46
2023/05/02 10:11:16;;;;;;;;;;;12.40;97.60;;;;;;5029119;28;20025;-47
2023/05/02 10:13:43;;;;;;;;;;;12.70;97.90;;;;;;5025551;28;19934;-45
2023/05/02 10:16:11;;;;;;;;;;;12.90;97.70;;;;;;5027269;28;19967;-47
2023/05/02 10:18:40;;;;;;;;;;;13.30;96.60;;;;;;5027038;28;19935;-46
2023/05/02 10:21:08;;;;;;;;;;;13.50;94.90;;;;;;5028127;28;20062;-45
2023/05/02 10:23:35;;;;;;;;;;;13.50;95.50;;;;;;5025755;28;20439;-44
2023/05/02 10:26:02;;;;;;;;;;;13.60;95.90;;;;;;5027267;28;19981;-46
2023/05/02 10:28:28;;;;;;;;;;;13.60;96.10;;;;;;5028718;28;19943;-49
2023/05/02 10:30:55;;;;;;;;;;;13.70;95.80;;;;;;5029788;28;19937;-46
2023/05/02 10:33:22;;;;;;;;;;;13.70;94.70;;;;;;5035372;28;19955;-45
2023/05/02 10:35:50;;;;;;;;;;;13.60;93.90;;;;;;5045450;28;19964;-47
2023/05/02 10:38:18;;;;;;;;;;;13.50;93.20;;;;;;5023293;28;19940;-46
2023/05/02 10:40:47;;;;;;;;;;;13.30;92.20;;;;;;5027922;28;19960;-46
2023/05/02 10:43:15;;;;;;;;;;;13.30;94.50;;;;;;5033269;28;20033;-45
2023/05/02 10:45:42;;;;;;;;;;;13.40;94.40;;;;;;5029093;28;20381;-44
2023/05/02 10:48:17;;;;;;;;;;;13.40;94.00;;;;;;5029660;28;19936;-46
2023/05/02 10:50:48;;;;;;;;;;;13.50;94.10;;;;;;5030629;28;20264;-46
2023/05/02 10:53:26;;;;;;;;;;;13.70;94.70;;;;;;5030802;28;20387;-43
2023/05/02 10:56:09;;;;;;;;;;;13.90;95.50;;;;;;5028141;28;19996;-45
2023/05/02 10:58:36;;;;;;;;;;;14.20;94.30;;;;;;5026445;28;19937;-40
2023/05/02 11:01:17;;;;;;;;;;;14.30;91.70;;;;;;5028361;28;20487;-44
2023/05/02 11:03:53;;;;;;;;;;;14.20;92.30;;;;;;5029465;28;19934;-50
2023/05/02 11:06:20;;;;;;;;;;;14.20;90.90;;;;;;5032152;28;19998;-45
2023/05/02 11:08:48;;;;;;;;;;;14.20;91.20;;;;;;5031158;28;19943;-46
2023/05/02 11:11:33;;;;;;;;;;;14.10;91.60;;;;;;5031770;28;20129;-45
2023/05/02 11:14:00;;;;;;;;;;;14.00;91.70;;;;;;5019217;28;19976;-49
2023/05/02 11:16:27;;;;;;;;;;;14.00;92.10;;;;;;5029359;28;19978;-44
2023/05/02 11:19:00;;;;;;;;;;;14.00;92.90;;;;;;5030486;28;19935;-50
2023/05/02 11:21:28;;;;;;;;;;;14.10;93.20;;;;;;5026433;28;19963;-45
2023/05/02 11:24:09;;;;;;;;;;;14.20;93.80;;;;;;5032085;28;20415;-45
2023/05/02 11:26:37;;;;;;;;;;;14.30;92.60;;;;;;5022967;28;20371;-49
2023/05/02 11:29:05;;;;;;;;;;;14.20;91.80;;;;;;5032235;28;20428;-46
2023/05/02 11:32:02;;;;;;;;;;;14.10;92.20;;;;;;5032258;28;19933;-49
2023/05/02 11:34:29;;;;;;;;;;;14.10;93.30;;;;;;5015845;28;20039;-43
2023/05/02 11:36:56;;;;;;;;;;;14.20;92.10;;;;;;5029835;28;19937;-45
2023/05/02 11:39:22;;;;;;;;;;;14.40;92.40;;;;;;5031586;28;19964;-42
2023/05/02 11:41:51;;;;;;;;;;;14.50;91.60;;;;;;5028459;28;19986;-46
2023/05/02 11:44:17;;;;;;;;;;;14.60;90.00;;;;;;5031987;28;19936;-46
2023/05/02 11:46:44;;;;;;;;;;;14.50;92.10;;;;;;5026545;28;19937;-43
2023/05/02 11:49:12;;;;;;;;;;;14.50;91.60;;;;;;5029799;28;20029;-40
2023/05/02 11:51:38;;;;;;;;;;;14.40;90.40;;;;;;5025760;28;19928;-45
2023/05/02 11:54:06;;;;;;;;;;;14.30;90.20;;;;;;5031295;28;20010;-48
2023/05/02 11:56:33;;;;;;;;;;;14.20;91.90;;;;;;5022246;28;19941;-45
2023/05/02 11:59:02;;;;;;;;;;;14.10;92.80;;;;;;5031162;28;19942;-42
2023/05/02 12:01:28;;;;;;;;;;;14.20;90.60;;;;;;5029498;28;19921;-45
2023/05/02 12:04:01;;;;;;;;;;;14.10;90.60;;;;;;5025927;28;20419;-46
2023/05/02 12:06:28;;;;;;;;;;;13.90;90.50;;;;;;5030341;28;19966;-44
2023/05/02 12:09:05;;;;;;;;;;;13.90;92.10;;;;;;5031159;28;19987;-45
2023/05/02 12:11:32;;;;;;;;;;;13.80;91.80;;;;;;5014443;28;19938;-44
2023/05/02 12:13:59;;;;;;;;;;;13.80;92.60;;;;;;5031111;28;19988;-44
2023/05/02 12:16:27;;;;;;;;;;;13.80;93.00;;;;;;5030147;28;19977;-47
2023/05/02 12:18:55;;;;;;;;;;;13.90;93.40;;;;;;5015501;28;19942;-45
2023/05/02 12:21:22;;;;;;;;;;;14.00;92.80;;;;;;5021273;28;20376;-44
2023/05/02 12:23:48;;;;;;;;;;;14.00;92.80;;;;;;5030161;28;20446;-46
2023/05/02 12:26:19;;;;;;;;;;;14.10;93.50;;;;;;5029149;28;19937;-44
2023/05/02 12:28:49;;;;;;;;;;;14.20;93.30;;;;;;5022425;28;19979;-45
2023/05/02 12:31:15;;;;;;;;;;;14.30;92.50;;;;;;5030693;28;20403;-43
2023/05/02 12:33:43;;;;;;;;;;;14.40;92.80;;;;;;5028573;28;19998;-47
2023/05/02 12:36:10;;;;;;;;;;;14.50;92.60;;;;;;5016881;28;19991;-45
2023/05/02 12:38:37;;;;;;;;;;;14.60;93.10;;;;;;5024949;28;19935;-45
2023/05/02 12:41:03;;;;;;;;;;;14.70;93.10;;;;;;5030541;28;19991;-45
2023/05/02 12:43:42;;;;;;;;;;;14.80;93.10;;;;;;5029848;28;20419;-47
2023/05/02 12:46:09;;;;;;;;;;;14.80;92.30;;;;;;5036745;28;19957;-47
2023/05/02 12:48:36;;;;;;;;;;;14.80;92.30;;;;;;5030916;28;19934;-46
2023/05/02 12:51:04;;;;;;;;;;;14.80;92.70;;;;;;5031147;28;20029;-46
2023/05/02 12:53:38;;;;;;;;;;;14.70;92.30;;;;;;5033041;28;19939;-46
2023/05/02 12:56:10;;;;;;;;;;;14.70;92.50;;;;;;5030428;28;19985;-47
2023/05/02 12:58:40;;;;;;;;;;;14.70;92.90;;;;;;5031261;28;19936;-46
2023/05/02 13:01:07;;;;;;;;;;;14.80;92.20;;;;;;5029182;28;20010;-46
2023/05/02 13:03:34;;;;;;;;;;;14.80;91.40;;;;;;5031345;28;19933;-46
2023/05/02 13:06:00;;;;;;;;;;;14.80;92.40;;;;;;5031207;28;20006;-45
2023/05/02 13:08:28;;;;;;;;;;;14.80;91.90;;;;;;5031308;28;19939;-42
2023/05/02 13:10:55;;;;;;;;;;;15.00;92.20;;;;;;5032219;28;20408;-45
2023/05/02 13:13:22;;;;;;;;;;;14.90;91.50;;;;;;5029847;28;20441;-48
2023/05/02 13:15:48;;;;;;;;;;;14.80;91.60;;;;;;5030435;28;20340;-45
2023/05/02 13:18:15;;;;;;;;;;;14.80;92.30;;;;;;5031173;28;20386;-45
2023/05/02 13:20:42;;;;;;;;;;;14.80;92.70;;;;;;5032359;28;20027;-45
2023/05/02 13:23:08;;;;;;;;;;;14.90;92.90;;;;;;5030531;28;19962;-46
2023/05/02 13:25:36;;;;;;;;;;;15.00;92.90;;;;;;5031888;28;19935;-48
2023/05/02 13:28:03;;;;;;;;;;;15.10;92.50;;;;;;5036432;28;20028;-46
2023/05/02 13:30:30;;;;;;;;;;;15.20;92.00;;;;;;5020140;28;19945;-44
2023/05/02 13:32:57;;;;;;;;;;;15.20;91.80;;;;;;5029772;28;19945;-46
2023/05/02 13:35:24;;;;;;;;;;;15.20;91.90;;;;;;5038565;28;19958;-46
2023/05/02 13:37:51;;;;;;;;;;;15.30;92.70;;;;;;5038756;28;19940;-47
2023/05/02 13:40:18;;;;;;;;;;;15.30;92.00;;;;;;5029749;28;19937;-44
2023/05/02 13:42:45;;;;;;;;;;;15.30;92.00;;;;;;5027978;28;19952;-47
2023/05/02 13:45:13;;;;;;;;;;;15.30;91.10;;;;;;5031317;28;20054;-49
2023/05/02 13:47:40;;;;;;;;;;;15.30;91.90;;;;;;5041689;28;20453;-47
2023/05/02 13:50:07;;;;;;;;;;;15.40;91.10;;;;;;5045025;28;19937;-48
2023/05/02 13:52:34;;;;;;;;;;;15.50;91.30;;;;;;5030040;28;19977;-45
2023/05/02 13:55:00;;;;;;;;;;;15.50;89.80;;;;;;5023429;28;20032;-47
2023/05/02 13:57:27;;;;;;;;;;;15.50;86.80;;;;;;5028221;28;19941;-45
2023/05/02 13:59:55;;;;;;;;;;;15.40;88.70;;;;;;5017362;28;19987;-45
2023/05/02 14:02:22;;;;;;;;;;;15.30;89.20;;;;;;5026830;28;20496;-46
2023/05/02 14:04:48;;;;;;;;;;;15.10;87.40;;;;;;5023215;28;19932;-47
2023/05/02 14:07:15;;;;;;;;;;;15.10;90.10;;;;;;5030743;28;19954;-47
2023/05/02 14:09:42;;;;;;;;;;;15.00;87.50;;;;;;5029716;28;19974;-44
2023/05/02 14:12:09;;;;;;;;;;;14.90;90.10;;;;;;5025234;28;19977;-45
2023/05/02 14:14:37;;;;;;;;;;;14.90;90.30;;;;;;5028976;28;20042;-46
2023/05/02 14:17:05;;;;;;;;;;;15.00;90.80;;;;;;5032232;28;20312;-47
2023/05/02 14:19:31;;;;;;;;;;;15.10;89.90;;;;;;5033854;28;19982;-50
2023/05/02 14:21:58;;;;;;;;;;;15.20;87.50;;;;;;5034451;28;19951;-45
2023/05/02 14:24:25;;;;;;;;;;;15.10;85.90;;;;;;5033900;28;19984;-47